Edina, Minnesota
Current Conditions -  °F | °C
As of 2:32 AM on Friday 28 Nov 2014 (Local Time) from KMSP Reporting Station
Light Snow Light Snow  
Wind Chill: -9°   Ceiling: 2100
Heat Index:   Visibility: 1.5mi
Dew Point:   Wind: 15mph
Humidity: 83%   Direction: 120°ESE
Pressure: 30.17"   Gusts: NA
Location:  44.91°N, 93.35°W
Report Text: KMSP 280832Z 12013KT 1 1/2SM -SN BR BKN021 OVC060 M13/M16 A3017 RMK AO2 P0002 T11331156
Loading
Personal Weather Stations






























Interactive Weather Map New forecast layout! Learn more

10-Day Weather Forecast

Advertisements
Track Severe Weather on mobile